sensor_id;sensor_type;location;lat;lon;timestamp;P1;durP1;ratioP1;P2;durP2;ratioP2
14348;SDS011;7258;50.376;8.742;2022-10-31T00:01:48;8.73;;;6.93;;
14348;SDS011;7258;50.376;8.742;2022-10-31T00:03:51;11.10;;;6.77;;
14348;SDS011;7258;50.376;8.742;2022-10-31T00:05:54;14.53;;;7.60;;
14348;SDS011;7258;50.376;8.742;2022-10-31T00:07:59;13.67;;;7.57;;
14348;SDS011;7258;50.376;8.742;2022-10-31T00:10:03;11.53;;;7.77;;
14348;SDS011;7258;50.376;8.742;2022-10-31T00:12:07;12.23;;;7.70;;
14348;SDS011;7258;50.376;8.742;2022-10-31T00:14:11;10.40;;;6.80;;
14348;SDS011;7258;50.376;8.742;2022-10-31T00:16:14;9.57;;;7.20;;
14348;SDS011;7258;50.376;8.742;2022-10-31T00:18:18;10.70;;;7.07;;
14348;SDS011;7258;50.376;8.742;2022-10-31T00:20:21;16.93;;;6.60;;
14348;SDS011;7258;50.376;8.742;2022-10-31T00:22:24;10.77;;;6.53;;
14348;SDS011;7258;50.376;8.742;2022-10-31T00:24:28;9.60;;;6.23;;
14348;SDS011;7258;50.376;8.742;2022-10-31T00:26:31;9.33;;;6.60;;
14348;SDS011;7258;50.376;8.742;2022-10-31T00:28:34;12.43;;;6.80;;
14348;SDS011;7258;50.376;8.742;2022-10-31T00:30:37;11.27;;;6.13;;
14348;SDS011;7258;50.376;8.742;2022-10-31T00:32:40;7.47;;;6.10;;
14348;SDS011;7258;50.376;8.742;2022-10-31T00:34:43;11.80;;;7.17;;
14348;SDS011;7258;50.376;8.742;2022-10-31T00:36:45;10.83;;;6.43;;
14348;SDS011;7258;50.376;8.742;2022-10-31T00:38:48;11.93;;;6.37;;
14348;SDS011;7258;50.376;8.742;2022-10-31T00:40:52;16.43;;;6.60;;
14348;SDS011;7258;50.376;8.742;2022-10-31T00:42:55;8.93;;;6.23;;
14348;SDS011;7258;50.376;8.742;2022-10-31T00:44:58;8.33;;;5.70;;
14348;SDS011;7258;50.376;8.742;2022-10-31T00:47:03;10.97;;;6.80;;
14348;SDS011;7258;50.376;8.742;2022-10-31T00:49:07;11.70;;;6.87;;
14348;SDS011;7258;50.376;8.742;2022-10-31T00:51:11;14.90;;;6.97;;
14348;SDS011;7258;50.376;8.742;2022-10-31T00:53:14;8.87;;;6.33;;
14348;SDS011;7258;50.376;8.742;2022-10-31T00:55:17;10.90;;;6.30;;
14348;SDS011;7258;50.376;8.742;2022-10-31T00:57:21;12.77;;;6.50;;
14348;SDS011;7258;50.376;8.742;2022-10-31T00:59:24;12.70;;;7.00;;
14348;SDS011;7258;50.376;8.742;2022-10-31T01:01:27;10.30;;;6.67;;
14348;SDS011;7258;50.376;8.742;2022-10-31T01:03:31;10.47;;;6.97;;
14348;SDS011;7258;50.376;8.742;2022-10-31T01:05:35;12.30;;;6.73;;
14348;SDS011;7258;50.376;8.742;2022-10-31T01:07:39;12.10;;;6.73;;
14348;SDS011;7258;50.376;8.742;2022-10-31T01:09:43;11.33;;;6.90;;
14348;SDS011;7258;50.376;8.742;2022-10-31T01:11:46;14.33;;;7.30;;
14348;SDS011;7258;50.376;8.742;2022-10-31T01:13:51;11.57;;;6.93;;
14348;SDS011;7258;50.376;8.742;2022-10-31T01:15:55;13.23;;;6.97;;
14348;SDS011;7258;50.376;8.742;2022-10-31T01:18:04;12.20;;;6.33;;
14348;SDS011;7258;50.376;8.742;2022-10-31T01:20:09;11.67;;;6.50;;
14348;SDS011;7258;50.376;8.742;2022-10-31T01:22:15;12.97;;;6.93;;
14348;SDS011;7258;50.376;8.742;2022-10-31T01:24:19;11.87;;;6.60;;
14348;SDS011;7258;50.376;8.742;2022-10-31T01:26:22;11.10;;;6.63;;
14348;SDS011;7258;50.376;8.742;2022-10-31T01:28:26;10.07;;;6.80;;
14348;SDS011;7258;50.376;8.742;2022-10-31T01:30:30;11.57;;;6.00;;
14348;SDS011;7258;50.376;8.742;2022-10-31T01:32:34;10.23;;;6.60;;
14348;SDS011;7258;50.376;8.742;2022-10-31T01:34:37;14.13;;;7.80;;
14348;SDS011;7258;50.376;8.742;2022-10-31T01:36:40;12.40;;;7.17;;
14348;SDS011;7258;50.376;8.742;2022-10-31T01:38:43;14.90;;;7.33;;
14348;SDS011;7258;50.376;8.742;2022-10-31T01:40:47;9.60;;;7.03;;
14348;SDS011;7258;50.376;8.742;2022-10-31T01:42:49;8.93;;;7.13;;
14348;SDS011;7258;50.376;8.742;2022-10-31T01:44:56;11.47;;;7.20;;
14348;SDS011;7258;50.376;8.742;2022-10-31T01:47:05;18.03;;;8.07;;
14348;SDS011;7258;50.376;8.742;2022-10-31T01:49:15;13.03;;;8.03;;
14348;SDS011;7258;50.376;8.742;2022-10-31T01:51:25;14.67;;;7.70;;
14348;SDS011;7258;50.376;8.742;2022-10-31T01:53:32;12.93;;;8.10;;
14348;SDS011;7258;50.376;8.742;2022-10-31T01:55:36;14.27;;;8.23;;
14348;SDS011;7258;50.376;8.742;2022-10-31T01:57:42;13.43;;;8.27;;
14348;SDS011;7258;50.376;8.742;2022-10-31T01:59:49;15.63;;;8.97;;
14348;SDS011;7258;50.376;8.742;2022-10-31T02:01:55;14.13;;;7.60;;
14348;SDS011;7258;50.376;8.742;2022-10-31T02:04:00;9.93;;;7.83;;
14348;SDS011;7258;50.376;8.742;2022-10-31T02:06:04;11.30;;;8.40;;
14348;SDS011;7258;50.376;8.742;2022-10-31T02:08:16;10.50;;;7.57;;
14348;SDS011;7258;50.376;8.742;2022-10-31T02:10:22;11.37;;;8.13;;
14348;SDS011;7258;50.376;8.742;2022-10-31T02:12:26;14.10;;;7.47;;
14348;SDS011;7258;50.376;8.742;2022-10-31T02:14:30;13.30;;;7.43;;
14348;SDS011;7258;50.376;8.742;2022-10-31T02:16:33;11.70;;;7.07;;
14348;SDS011;7258;50.376;8.742;2022-10-31T02:18:36;14.23;;;7.87;;
14348;SDS011;7258;50.376;8.742;2022-10-31T02:20:42;11.20;;;7.27;;
14348;SDS011;7258;50.376;8.742;2022-10-31T02:23:15;11.43;;;6.87;;
14348;SDS011;7258;50.376;8.742;2022-10-31T02:25:41;13.10;;;6.80;;
14348;SDS011;7258;50.376;8.742;2022-10-31T02:28:00;11.67;;;7.00;;
14348;SDS011;7258;50.376;8.742;2022-10-31T02:30:22;13.10;;;7.13;;
14348;SDS011;7258;50.376;8.742;2022-10-31T02:32:29;11.73;;;7.27;;
14348;SDS011;7258;50.376;8.742;2022-10-31T02:34:40;14.47;;;7.60;;
14348;SDS011;7258;50.376;8.742;2022-10-31T02:36:52;11.43;;;6.77;;
14348;SDS011;7258;50.376;8.742;2022-10-31T02:39:02;13.73;;;7.53;;
14348;SDS011;7258;50.376;8.742;2022-10-31T02:41:16;10.13;;;7.07;;
14348;SDS011;7258;50.376;8.742;2022-10-31T02:43:25;13.10;;;6.87;;
14348;SDS011;7258;50.376;8.742;2022-10-31T02:45:31;12.70;;;7.93;;
14348;SDS011;7258;50.376;8.742;2022-10-31T02:47:42;13.07;;;7.87;;
14348;SDS011;7258;50.376;8.742;2022-10-31T02:49:48;12.60;;;7.37;;
14348;SDS011;7258;50.376;8.742;2022-10-31T02:51:56;13.17;;;8.10;;
14348;SDS011;7258;50.376;8.742;2022-10-31T02:54:00;15.43;;;7.77;;
14348;SDS011;7258;50.376;8.742;2022-10-31T02:56:04;10.80;;;7.57;;
14348;SDS011;7258;50.376;8.742;2022-10-31T02:58:11;9.27;;;7.27;;
14348;SDS011;7258;50.376;8.742;2022-10-31T03:00:16;12.07;;;8.00;;
14348;SDS011;7258;50.376;8.742;2022-10-31T03:02:24;12.97;;;7.37;;
14348;SDS011;7258;50.376;8.742;2022-10-31T03:07:21;12.37;;;7.77;;
14348;SDS011;7258;50.376;8.742;2022-10-31T03:09:32;10.20;;;7.43;;
14348;SDS011;7258;50.376;8.742;2022-10-31T03:11:43;14.03;;;7.87;;
14348;SDS011;7258;50.376;8.742;2022-10-31T03:13:51;10.70;;;7.57;;
14348;SDS011;7258;50.376;8.742;2022-10-31T03:16:04;13.53;;;7.57;;
14348;SDS011;7258;50.376;8.742;2022-10-31T03:18:12;13.80;;;7.77;;
14348;SDS011;7258;50.376;8.742;2022-10-31T03:20:21;9.73;;;6.63;;
14348;SDS011;7258;50.376;8.742;2022-10-31T03:22:27;15.70;;;7.47;;
14348;SDS011;7258;50.376;8.742;2022-10-31T03:24:32;8.20;;;7.10;;
14348;SDS011;7258;50.376;8.742;2022-10-31T03:26:40;12.87;;;7.80;;
14348;SDS011;7258;50.376;8.742;2022-10-31T03:28:49;7.80;;;6.40;;
14348;SDS011;7258;50.376;8.742;2022-10-31T03:30:55;12.27;;;7.40;;
14348;SDS011;7258;50.376;8.742;2022-10-31T03:33:03;11.20;;;6.80;;
14348;SDS011;7258;50.376;8.742;2022-10-31T03:35:11;11.40;;;6.80;;
14348;SDS011;7258;50.376;8.742;2022-10-31T03:37:19;10.07;;;7.53;;
14348;SDS011;7258;50.376;8.742;2022-10-31T03:39:24;13.33;;;6.90;;
14348;SDS011;7258;50.376;8.742;2022-10-31T03:41:28;14.60;;;6.93;;
14348;SDS011;7258;50.376;8.742;2022-10-31T03:43:36;9.10;;;6.10;;
14348;SDS011;7258;50.376;8.742;2022-10-31T03:45:44;17.13;;;6.50;;
14348;SDS011;7258;50.376;8.742;2022-10-31T03:47:48;13.40;;;6.83;;
14348;SDS011;7258;50.376;8.742;2022-10-31T03:49:52;8.20;;;6.37;;
14348;SDS011;7258;50.376;8.742;2022-10-31T03:51:56;11.43;;;6.37;;
14348;SDS011;7258;50.376;8.742;2022-10-31T03:54:07;8.70;;;6.20;;
14348;SDS011;7258;50.376;8.742;2022-10-31T03:56:17;12.70;;;6.47;;
14348;SDS011;7258;50.376;8.742;2022-10-31T03:58:24;9.10;;;6.73;;
14348;SDS011;7258;50.376;8.742;2022-10-31T04:00:32;13.93;;;6.90;;
14348;SDS011;7258;50.376;8.742;2022-10-31T04:02:37;11.10;;;7.17;;
14348;SDS011;7258;50.376;8.742;2022-10-31T04:04:42;16.17;;;7.83;;
14348;SDS011;7258;50.376;8.742;2022-10-31T04:06:46;12.97;;;7.03;;
14348;SDS011;7258;50.376;8.742;2022-10-31T04:08:51;10.30;;;7.40;;
14348;SDS011;7258;50.376;8.742;2022-10-31T04:10:59;13.07;;;7.10;;
14348;SDS011;7258;50.376;8.742;2022-10-31T04:13:05;9.10;;;6.90;;
14348;SDS011;7258;50.376;8.742;2022-10-31T04:15:13;15.47;;;8.30;;
14348;SDS011;7258;50.376;8.742;2022-10-31T04:17:18;10.70;;;7.53;;
14348;SDS011;7258;50.376;8.742;2022-10-31T04:19:23;13.53;;;7.50;;
14348;SDS011;7258;50.376;8.742;2022-10-31T04:21:26;15.47;;;7.27;;
14348;SDS011;7258;50.376;8.742;2022-10-31T04:23:30;16.03;;;7.67;;
14348;SDS011;7258;50.376;8.742;2022-10-31T04:25:34;14.87;;;7.37;;
14348;SDS011;7258;50.376;8.742;2022-10-31T04:27:39;13.03;;;7.20;;
14348;SDS011;7258;50.376;8.742;2022-10-31T04:29:42;11.00;;;7.30;;
14348;SDS011;7258;50.376;8.742;2022-10-31T04:31:50;12.20;;;7.47;;
14348;SDS011;7258;50.376;8.742;2022-10-31T04:33:53;9.23;;;7.23;;
14348;SDS011;7258;50.376;8.742;2022-10-31T04:35:56;15.47;;;7.83;;
14348;SDS011;7258;50.376;8.742;2022-10-31T04:38:01;13.53;;;7.17;;
14348;SDS011;7258;50.376;8.742;2022-10-31T04:40:18;11.73;;;7.37;;
14348;SDS011;7258;50.376;8.742;2022-10-31T04:42:21;13.17;;;7.20;;
14348;SDS011;7258;50.376;8.742;2022-10-31T04:44:25;12.87;;;7.63;;
14348;SDS011;7258;50.376;8.742;2022-10-31T04:46:27;10.60;;;7.37;;
14348;SDS011;7258;50.376;8.742;2022-10-31T04:48:31;9.43;;;7.87;;
14348;SDS011;7258;50.376;8.742;2022-10-31T04:50:34;11.03;;;8.23;;
14348;SDS011;7258;50.376;8.742;2022-10-31T04:52:38;15.33;;;7.67;;
14348;SDS011;7258;50.376;8.742;2022-10-31T04:54:41;12.83;;;7.17;;
14348;SDS011;7258;50.376;8.742;2022-10-31T04:56:44;13.67;;;7.80;;
14348;SDS011;7258;50.376;8.742;2022-10-31T04:58:47;18.43;;;8.70;;
14348;SDS011;7258;50.376;8.742;2022-10-31T05:00:52;13.07;;;7.47;;
14348;SDS011;7258;50.376;8.742;2022-10-31T05:02:56;12.43;;;7.87;;
14348;SDS011;7258;50.376;8.742;2022-10-31T05:05:01;14.63;;;8.00;;
14348;SDS011;7258;50.376;8.742;2022-10-31T05:07:05;13.80;;;7.30;;
14348;SDS011;7258;50.376;8.742;2022-10-31T05:09:09;13.83;;;7.37;;
14348;SDS011;7258;50.376;8.742;2022-10-31T05:11:12;15.37;;;7.30;;
14348;SDS011;7258;50.376;8.742;2022-10-31T05:13:15;12.60;;;7.57;;
14348;SDS011;7258;50.376;8.742;2022-10-31T05:15:18;13.33;;;8.00;;
14348;SDS011;7258;50.376;8.742;2022-10-31T05:17:23;12.40;;;7.20;;
14348;SDS011;7258;50.376;8.742;2022-10-31T05:19:26;10.40;;;6.33;;
14348;SDS011;7258;50.376;8.742;2022-10-31T05:21:29;11.87;;;7.10;;
14348;SDS011;7258;50.376;8.742;2022-10-31T05:23:31;15.63;;;7.03;;
14348;SDS011;7258;50.376;8.742;2022-10-31T05:25:36;12.33;;;6.90;;
14348;SDS011;7258;50.376;8.742;2022-10-31T05:27:39;14.80;;;7.30;;
14348;SDS011;7258;50.376;8.742;2022-10-31T05:29:42;13.90;;;7.77;;
14348;SDS011;7258;50.376;8.742;2022-10-31T05:31:45;12.20;;;8.40;;
14348;SDS011;7258;50.376;8.742;2022-10-31T05:33:49;10.10;;;7.27;;
14348;SDS011;7258;50.376;8.742;2022-10-31T05:35:52;11.03;;;7.43;;
14348;SDS011;7258;50.376;8.742;2022-10-31T05:37:55;13.47;;;7.97;;
14348;SDS011;7258;50.376;8.742;2022-10-31T05:39:59;11.50;;;6.80;;
14348;SDS011;7258;50.376;8.742;2022-10-31T05:42:09;13.17;;;7.60;;
14348;SDS011;7258;50.376;8.742;2022-10-31T05:44:11;11.37;;;8.10;;
14348;SDS011;7258;50.376;8.742;2022-10-31T05:46:14;13.27;;;7.87;;
14348;SDS011;7258;50.376;8.742;2022-10-31T05:48:17;9.50;;;8.00;;
14348;SDS011;7258;50.376;8.742;2022-10-31T05:50:21;14.10;;;8.33;;
14348;SDS011;7258;50.376;8.742;2022-10-31T05:52:25;15.80;;;8.50;;
14348;SDS011;7258;50.376;8.742;2022-10-31T05:54:28;14.07;;;8.43;;
14348;SDS011;7258;50.376;8.742;2022-10-31T05:56:30;12.17;;;8.30;;
14348;SDS011;7258;50.376;8.742;2022-10-31T05:58:33;13.67;;;8.60;;
14348;SDS011;7258;50.376;8.742;2022-10-31T06:00:36;13.23;;;9.70;;
14348;SDS011;7258;50.376;8.742;2022-10-31T06:02:39;12.43;;;8.23;;
14348;SDS011;7258;50.376;8.742;2022-10-31T06:04:42;13.00;;;8.93;;
14348;SDS011;7258;50.376;8.742;2022-10-31T06:06:46;15.77;;;8.50;;
14348;SDS011;7258;50.376;8.742;2022-10-31T06:08:49;14.37;;;9.00;;
14348;SDS011;7258;50.376;8.742;2022-10-31T06:10:52;13.50;;;9.47;;
14348;SDS011;7258;50.376;8.742;2022-10-31T06:12:55;13.17;;;9.50;;
14348;SDS011;7258;50.376;8.742;2022-10-31T06:14:57;15.40;;;8.93;;
14348;SDS011;7258;50.376;8.742;2022-10-31T06:17:00;12.03;;;8.80;;
14348;SDS011;7258;50.376;8.742;2022-10-31T06:19:03;11.90;;;8.93;;
14348;SDS011;7258;50.376;8.742;2022-10-31T06:21:06;14.37;;;9.03;;
14348;SDS011;7258;50.376;8.742;2022-10-31T06:23:10;14.93;;;9.17;;
14348;SDS011;7258;50.376;8.742;2022-10-31T06:25:13;16.90;;;9.40;;
14348;SDS011;7258;50.376;8.742;2022-10-31T06:27:16;17.00;;;9.97;;
14348;SDS011;7258;50.376;8.742;2022-10-31T06:29:18;16.70;;;10.10;;
14348;SDS011;7258;50.376;8.742;2022-10-31T06:31:21;18.37;;;10.53;;
14348;SDS011;7258;50.376;8.742;2022-10-31T06:33:24;13.43;;;10.07;;
14348;SDS011;7258;50.376;8.742;2022-10-31T06:35:27;15.93;;;9.87;;
14348;SDS011;7258;50.376;8.742;2022-10-31T06:37:29;15.07;;;10.13;;
14348;SDS011;7258;50.376;8.742;2022-10-31T06:39:34;18.07;;;10.80;;
14348;SDS011;7258;50.376;8.742;2022-10-31T06:41:36;14.80;;;10.50;;
14348;SDS011;7258;50.376;8.742;2022-10-31T06:43:40;14.53;;;9.53;;
14348;SDS011;7258;50.376;8.742;2022-10-31T06:45:43;16.07;;;9.77;;
14348;SDS011;7258;50.376;8.742;2022-10-31T06:47:49;13.67;;;9.90;;
14348;SDS011;7258;50.376;8.742;2022-10-31T06:50:13;14.50;;;9.63;;
14348;SDS011;7258;50.376;8.742;2022-10-31T06:52:15;13.17;;;9.10;;
14348;SDS011;7258;50.376;8.742;2022-10-31T06:54:18;13.90;;;9.30;;
14348;SDS011;7258;50.376;8.742;2022-10-31T06:56:23;14.03;;;9.10;;
14348;SDS011;7258;50.376;8.742;2022-10-31T06:58:26;12.77;;;8.70;;
14348;SDS011;7258;50.376;8.742;2022-10-31T07:00:29;11.90;;;8.70;;
14348;SDS011;7258;50.376;8.742;2022-10-31T07:02:33;13.53;;;8.70;;
14348;SDS011;7258;50.376;8.742;2022-10-31T07:04:35;14.20;;;8.87;;
14348;SDS011;7258;50.376;8.742;2022-10-31T07:06:38;11.80;;;7.90;;
14348;SDS011;7258;50.376;8.742;2022-10-31T07:08:41;13.03;;;8.83;;
14348;SDS011;7258;50.376;8.742;2022-10-31T07:10:50;9.87;;;8.33;;
14348;SDS011;7258;50.376;8.742;2022-10-31T07:12:55;10.17;;;8.10;;
14348;SDS011;7258;50.376;8.742;2022-10-31T07:14:59;13.10;;;8.73;;
14348;SDS011;7258;50.376;8.742;2022-10-31T07:17:01;9.67;;;7.70;;
14348;SDS011;7258;50.376;8.742;2022-10-31T07:19:04;12.77;;;8.83;;
14348;SDS011;7258;50.376;8.742;2022-10-31T07:21:07;14.57;;;8.80;;
14348;SDS011;7258;50.376;8.742;2022-10-31T07:23:09;11.27;;;8.50;;
14348;SDS011;7258;50.376;8.742;2022-10-31T07:25:14;12.07;;;8.83;;
14348;SDS011;7258;50.376;8.742;2022-10-31T07:27:17;15.30;;;8.77;;
14348;SDS011;7258;50.376;8.742;2022-10-31T07:29:21;13.13;;;8.47;;
14348;SDS011;7258;50.376;8.742;2022-10-31T07:31:24;13.07;;;8.97;;
14348;SDS011;7258;50.376;8.742;2022-10-31T07:33:27;12.93;;;8.80;;
14348;SDS011;7258;50.376;8.742;2022-10-31T07:35:30;13.57;;;8.93;;
14348;SDS011;7258;50.376;8.742;2022-10-31T07:37:33;13.37;;;9.30;;
14348;SDS011;7258;50.376;8.742;2022-10-31T07:39:36;10.90;;;9.37;;
14348;SDS011;7258;50.376;8.742;2022-10-31T07:41:39;15.23;;;10.67;;
14348;SDS011;7258;50.376;8.742;2022-10-31T07:43:41;12.20;;;9.00;;
14348;SDS011;7258;50.376;8.742;2022-10-31T07:45:49;12.03;;;8.83;;
14348;SDS011;7258;50.376;8.742;2022-10-31T07:47:53;13.07;;;9.70;;
14348;SDS011;7258;50.376;8.742;2022-10-31T07:49:56;13.70;;;8.93;;
14348;SDS011;7258;50.376;8.742;2022-10-31T07:51:59;13.80;;;8.80;;
14348;SDS011;7258;50.376;8.742;2022-10-31T07:54:01;11.20;;;8.60;;
14348;SDS011;7258;50.376;8.742;2022-10-31T07:56:04;12.83;;;8.77;;
14348;SDS011;7258;50.376;8.742;2022-10-31T07:58:08;13.30;;;8.53;;
14348;SDS011;7258;50.376;8.742;2022-10-31T08:00:12;11.87;;;8.33;;
14348;SDS011;7258;50.376;8.742;2022-10-31T08:02:16;11.70;;;8.40;;
14348;SDS011;7258;50.376;8.742;2022-10-31T08:04:20;11.47;;;8.97;;
14348;SDS011;7258;50.376;8.742;2022-10-31T08:06:23;12.67;;;7.60;;
14348;SDS011;7258;50.376;8.742;2022-10-31T08:08:26;10.50;;;8.27;;
14348;SDS011;7258;50.376;8.742;2022-10-31T08:10:35;9.97;;;8.13;;
14348;SDS011;7258;50.376;8.742;2022-10-31T08:12:38;17.07;;;9.60;;
14348;SDS011;7258;50.376;8.742;2022-10-31T08:14:40;13.70;;;9.50;;
14348;SDS011;7258;50.376;8.742;2022-10-31T08:16:43;13.27;;;9.10;;
14348;SDS011;7258;50.376;8.742;2022-10-31T08:18:47;10.80;;;9.10;;
14348;SDS011;7258;50.376;8.742;2022-10-31T08:20:50;10.73;;;9.63;;
14348;SDS011;7258;50.376;8.742;2022-10-31T08:22:54;10.70;;;8.70;;
14348;SDS011;7258;50.376;8.742;2022-10-31T08:24:57;14.63;;;8.90;;
14348;SDS011;7258;50.376;8.742;2022-10-31T08:27:00;11.33;;;9.03;;
14348;SDS011;7258;50.376;8.742;2022-10-31T08:29:03;13.20;;;9.30;;
14348;SDS011;7258;50.376;8.742;2022-10-31T08:31:05;13.40;;;9.40;;
14348;SDS011;7258;50.376;8.742;2022-10-31T08:33:09;11.50;;;8.77;;
14348;SDS011;7258;50.376;8.742;2022-10-31T08:35:15;12.57;;;9.33;;
14348;SDS011;7258;50.376;8.742;2022-10-31T08:37:17;12.83;;;10.33;;
14348;SDS011;7258;50.376;8.742;2022-10-31T08:39:21;13.63;;;9.83;;
14348;SDS011;7258;50.376;8.742;2022-10-31T08:41:23;13.17;;;9.90;;
14348;SDS011;7258;50.376;8.742;2022-10-31T08:43:26;13.47;;;10.43;;
14348;SDS011;7258;50.376;8.742;2022-10-31T08:45:30;13.13;;;10.20;;
14348;SDS011;7258;50.376;8.742;2022-10-31T08:47:34;12.60;;;10.60;;
14348;SDS011;7258;50.376;8.742;2022-10-31T08:49:36;11.63;;;10.43;;
14348;SDS011;7258;50.376;8.742;2022-10-31T08:51:40;12.35;;;10.85;;
14348;SDS011;7258;50.376;8.742;2022-10-31T08:53:43;13.15;;;10.43;;
14348;SDS011;7258;50.376;8.742;2022-10-31T08:55:46;17.85;;;11.05;;
14348;SDS011;7258;50.376;8.742;2022-10-31T08:57:53;12.82;;;11.35;;
14348;SDS011;7258;50.376;8.742;2022-10-31T08:59:57;14.00;;;10.57;;
14348;SDS011;7258;50.376;8.742;2022-10-31T09:01:59;11.82;;;10.40;;
14348;SDS011;7258;50.376;8.742;2022-10-31T09:04:02;12.05;;;10.70;;
14348;SDS011;7258;50.376;8.742;2022-10-31T09:06:05;14.98;;;11.93;;
14348;SDS011;7258;50.376;8.742;2022-10-31T09:08:12;17.45;;;12.40;;
14348;SDS011;7258;50.376;8.742;2022-10-31T09:10:17;16.67;;;13.25;;
14348;SDS011;7258;50.376;8.742;2022-10-31T09:12:20;14.23;;;12.45;;
14348;SDS011;7258;50.376;8.742;2022-10-31T09:14:22;19.27;;;13.98;;
14348;SDS011;7258;50.376;8.742;2022-10-31T09:16:25;18.73;;;13.27;;
14348;SDS011;7258;50.376;8.742;2022-10-31T09:18:28;18.05;;;13.52;;
14348;SDS011;7258;50.376;8.742;2022-10-31T09:20:33;15.88;;;13.95;;
14348;SDS011;7258;50.376;8.742;2022-10-31T09:22:37;16.50;;;13.23;;
14348;SDS011;7258;50.376;8.742;2022-10-31T09:24:41;16.75;;;12.15;;
14348;SDS011;7258;50.376;8.742;2022-10-31T09:26:44;16.17;;;12.98;;
14348;SDS011;7258;50.376;8.742;2022-10-31T09:28:46;16.73;;;12.48;;
14348;SDS011;7258;50.376;8.742;2022-10-31T09:30:50;18.00;;;13.20;;
14348;SDS011;7258;50.376;8.742;2022-10-31T09:32:54;16.55;;;13.07;;
14348;SDS011;7258;50.376;8.742;2022-10-31T09:34:57;18.42;;;13.30;;
14348;SDS011;7258;50.376;8.742;2022-10-31T09:37:00;14.18;;;12.07;;
14348;SDS011;7258;50.376;8.742;2022-10-31T09:39:03;13.88;;;12.20;;
14348;SDS011;7258;50.376;8.742;2022-10-31T09:41:12;16.67;;;12.65;;
14348;SDS011;7258;50.376;8.742;2022-10-31T09:43:22;19.00;;;13.13;;
14348;SDS011;7258;50.376;8.742;2022-10-31T09:45:31;17.55;;;12.65;;
14348;SDS011;7258;50.376;8.742;2022-10-31T09:47:40;15.32;;;11.73;;
14348;SDS011;7258;50.376;8.742;2022-10-31T09:49:55;16.55;;;11.35;;
14348;SDS011;7258;50.376;8.742;2022-10-31T09:52:10;16.00;;;11.65;;
14348;SDS011;7258;50.376;8.742;2022-10-31T09:54:20;15.15;;;11.15;;
14348;SDS011;7258;50.376;8.742;2022-10-31T09:56:30;15.70;;;11.35;;
14348;SDS011;7258;50.376;8.742;2022-10-31T09:58:39;13.60;;;11.45;;
14348;SDS011;7258;50.376;8.742;2022-10-31T10:00:46;13.35;;;11.55;;
14348;SDS011;7258;50.376;8.742;2022-10-31T10:02:51;16.10;;;11.45;;
14348;SDS011;7258;50.376;8.742;2022-10-31T10:05:00;16.85;;;11.27;;
14348;SDS011;7258;50.376;8.742;2022-10-31T10:07:08;13.68;;;11.52;;
14348;SDS011;7258;50.376;8.742;2022-10-31T10:09:19;15.23;;;11.30;;
14348;SDS011;7258;50.376;8.742;2022-10-31T10:11:32;12.10;;;10.88;;
14348;SDS011;7258;50.376;8.742;2022-10-31T10:13:49;18.42;;;11.68;;
14348;SDS011;7258;50.376;8.742;2022-10-31T10:16:08;12.68;;;11.27;;
14348;SDS011;7258;50.376;8.742;2022-10-31T10:18:21;14.38;;;11.60;;
14348;SDS011;7258;50.376;8.742;2022-10-31T10:20:31;14.48;;;11.57;;
14348;SDS011;7258;50.376;8.742;2022-10-31T10:22:43;15.82;;;11.35;;
14348;SDS011;7258;50.376;8.742;2022-10-31T10:24:56;19.40;;;11.90;;
14348;SDS011;7258;50.376;8.742;2022-10-31T10:27:11;17.63;;;12.00;;
14348;SDS011;7258;50.376;8.742;2022-10-31T10:29:29;13.40;;;11.85;;
14348;SDS011;7258;50.376;8.742;2022-10-31T10:31:37;15.65;;;11.20;;
14348;SDS011;7258;50.376;8.742;2022-10-31T10:33:45;16.52;;;11.82;;
14348;SDS011;7258;50.376;8.742;2022-10-31T10:35:57;14.70;;;11.75;;
14348;SDS011;7258;50.376;8.742;2022-10-31T10:38:03;15.63;;;11.63;;
14348;SDS011;7258;50.376;8.742;2022-10-31T10:40:13;15.05;;;12.13;;
14348;SDS011;7258;50.376;8.742;2022-10-31T10:42:21;13.38;;;11.32;;
14348;SDS011;7258;50.376;8.742;2022-10-31T10:44:45;14.05;;;10.93;;
14348;SDS011;7258;50.376;8.742;2022-10-31T10:47:07;14.27;;;11.27;;
14348;SDS011;7258;50.376;8.742;2022-10-31T10:49:30;13.40;;;10.82;;
14348;SDS011;7258;50.376;8.742;2022-10-31T10:51:37;13.02;;;10.55;;
14348;SDS011;7258;50.376;8.742;2022-10-31T10:54:11;12.82;;;10.73;;
14348;SDS011;7258;50.376;8.742;2022-10-31T10:56:24;15.10;;;11.13;;
14348;SDS011;7258;50.376;8.742;2022-10-31T10:58:39;14.15;;;10.85;;
14348;SDS011;7258;50.376;8.742;2022-10-31T11:00:45;15.90;;;11.50;;
14348;SDS011;7258;50.376;8.742;2022-10-31T11:02:50;12.18;;;10.73;;
14348;SDS011;7258;50.376;8.742;2022-10-31T11:04:54;16.90;;;11.93;;
14348;SDS011;7258;50.376;8.742;2022-10-31T11:07:00;16.25;;;11.98;;
14348;SDS011;7258;50.376;8.742;2022-10-31T11:09:08;15.02;;;11.38;;
14348;SDS011;7258;50.376;8.742;2022-10-31T11:11:23;14.75;;;11.05;;
14348;SDS011;7258;50.376;8.742;2022-10-31T11:13:29;11.63;;;10.43;;
14348;SDS011;7258;50.376;8.742;2022-10-31T11:15:36;12.38;;;10.48;;
14348;SDS011;7258;50.376;8.742;2022-10-31T11:17:41;12.88;;;10.93;;
14348;SDS011;7258;50.376;8.742;2022-10-31T11:19:44;16.15;;;9.68;;
14348;SDS011;7258;50.376;8.742;2022-10-31T11:21:47;13.27;;;9.35;;
14348;SDS011;7258;50.376;8.742;2022-10-31T11:24:01;13.95;;;10.07;;
14348;SDS011;7258;50.376;8.742;2022-10-31T11:26:05;12.07;;;9.88;;
14348;SDS011;7258;50.376;8.742;2022-10-31T11:28:20;16.00;;;9.98;;
14348;SDS011;7258;50.376;8.742;2022-10-31T11:30:23;14.27;;;9.38;;
14348;SDS011;7258;50.376;8.742;2022-10-31T11:32:27;13.55;;;9.43;;
14348;SDS011;7258;50.376;8.742;2022-10-31T11:34:32;13.98;;;9.63;;
14348;SDS011;7258;50.376;8.742;2022-10-31T11:36:37;12.23;;;8.68;;
14348;SDS011;7258;50.376;8.742;2022-10-31T11:38:41;10.95;;;8.55;;
14348;SDS011;7258;50.376;8.742;2022-10-31T11:40:52;14.68;;;8.82;;
14348;SDS011;7258;50.376;8.742;2022-10-31T11:42:57;12.40;;;8.80;;
14348;SDS011;7258;50.376;8.742;2022-10-31T11:45:00;8.93;;;7.32;;
14348;SDS011;7258;50.376;8.742;2022-10-31T11:47:10;9.60;;;8.30;;
14348;SDS011;7258;50.376;8.742;2022-10-31T11:49:18;9.55;;;7.72;;
14348;SDS011;7258;50.376;8.742;2022-10-31T11:51:25;12.25;;;7.32;;
14348;SDS011;7258;50.376;8.742;2022-10-31T11:53:32;8.05;;;6.75;;
14348;SDS011;7258;50.376;8.742;2022-10-31T11:55:37;12.35;;;8.07;;
14348;SDS011;7258;50.376;8.742;2022-10-31T11:57:42;10.73;;;7.78;;
14348;SDS011;7258;50.376;8.742;2022-10-31T11:59:50;14.77;;;7.70;;
14348;SDS011;7258;50.376;8.742;2022-10-31T12:01:54;9.43;;;7.05;;
14348;SDS011;7258;50.376;8.742;2022-10-31T12:04:00;12.88;;;8.15;;
14348;SDS011;7258;50.376;8.742;2022-10-31T12:06:12;10.57;;;7.35;;
14348;SDS011;7258;50.376;8.742;2022-10-31T12:08:19;9.45;;;7.07;;
14348;SDS011;7258;50.376;8.742;2022-10-31T12:10:24;12.10;;;7.30;;
14348;SDS011;7258;50.376;8.742;2022-10-31T12:12:35;11.00;;;7.43;;
14348;SDS011;7258;50.376;8.742;2022-10-31T12:14:56;9.70;;;7.18;;
14348;SDS011;7258;50.376;8.742;2022-10-31T12:17:11;9.40;;;7.28;;
14348;SDS011;7258;50.376;8.742;2022-10-31T12:19:21;11.40;;;7.68;;
14348;SDS011;7258;50.376;8.742;2022-10-31T12:21:43;9.23;;;7.47;;
14348;SDS011;7258;50.376;8.742;2022-10-31T12:24:01;12.82;;;7.07;;
14348;SDS011;7258;50.376;8.742;2022-10-31T12:26:14;10.43;;;7.13;;
14348;SDS011;7258;50.376;8.742;2022-10-31T12:28:39;12.85;;;7.90;;
14348;SDS011;7258;50.376;8.742;2022-10-31T12:30:58;10.02;;;6.85;;
14348;SDS011;7258;50.376;8.742;2022-10-31T12:33:16;10.10;;;7.45;;
14348;SDS011;7258;50.376;8.742;2022-10-31T12:35:32;11.43;;;7.35;;
14348;SDS011;7258;50.376;8.742;2022-10-31T12:37:47;9.88;;;7.18;;
14348;SDS011;7258;50.376;8.742;2022-10-31T12:40:00;8.40;;;6.20;;
14348;SDS011;7258;50.376;8.742;2022-10-31T12:42:17;10.18;;;7.78;;